Time;durP1;ratioP1;P1;durP2;ratioP2;P2;SDS_P1;SDS_P2;PMS_P1;PMS_P2;Temp;Humidity;BMP_temperature;BMP_pressure;BME280_temperature;BME280_humidity;BME280_pressure;Samples;Min_cycle;Max_cycle;Signal;HPM_P1;HPM_P2
2021/03/11 04:16:01;;;;;;;;;;;-7.30;99.90;;;;;;5050916;28;20315;-67
2021/03/11 04:18:26;;;;;;;;;;;-7.30;99.90;;;;;;5051778;28;19909;-66
2021/03/11 04:20:53;;;;;;;;;;;-7.30;99.90;;;;;;5051682;28;19958;-66
2021/03/11 04:23:19;;;;;;;;;;;-7.30;99.90;;;;;;5051863;28;19905;-66
2021/03/11 04:25:45;;;;;;;;;;;-7.30;99.90;;;;;;5051442;28;19905;-68
2021/03/11 04:28:11;;;;;;;;;;;-7.30;99.90;;;;;;5054283;28;19958;-68
2021/03/11 04:30:37;;;;;;;;;;;-7.30;99.90;;;;;;5055008;28;20352;-65
2021/03/11 04:33:02;;;;;;;;;;;-7.30;99.90;;;;;;5055518;28;19908;-67
2021/03/11 04:35:28;;;;;;;;;;;-7.30;99.90;;;;;;5040908;28;19913;-66
2021/03/11 04:37:54;;;;;;;;;;;-7.30;99.90;;;;;;5054990;28;19909;-66
2021/03/11 04:40:20;;;;;;;;;;;-7.30;99.90;;;;;;5055001;28;19935;-66
2021/03/11 04:42:46;;;;;;;;;;;-7.40;99.90;;;;;;5054667;28;20291;-67
2021/03/11 04:45:12;;;;;;;;;;;-7.40;99.90;;;;;;5055165;28;19905;-67
2021/03/11 04:47:38;;;;;;;;;;;-7.40;99.90;;;;;;5054791;28;19940;-68
2021/03/11 04:50:07;;;;;;;;;;;-7.40;99.90;;;;;;5054658;28;20279;-68
2021/03/11 04:52:34;;;;;;;;;;;-7.40;99.90;;;;;;5054795;28;19912;-67
2021/03/11 04:55:00;;;;;;;;;;;-7.30;99.90;;;;;;5055104;28;19916;-68
2021/03/11 04:57:26;;;;;;;;;;;-7.40;99.90;;;;;;5055194;28;20261;-68
2021/03/11 04:59:52;;;;;;;;;;;-7.40;99.90;;;;;;5040809;28;19941;-67
2021/03/11 05:02:18;;;;;;;;;;;-7.40;99.90;;;;;;5054778;28;20338;-67
2021/03/11 05:04:44;;;;;;;;;;;-7.50;99.90;;;;;;5054435;28;20022;-67
2021/03/11 05:07:13;;;;;;;;;;;-7.50;99.90;;;;;;5054951;28;19931;-66
2021/03/11 05:09:38;;;;;;;;;;;-7.50;99.90;;;;;;5054499;28;19936;-67
2021/03/11 05:12:04;;;;;;;;;;;-7.40;99.90;;;;;;5054506;28;19988;-68
2021/03/11 05:14:30;;;;;;;;;;;-7.40;99.90;;;;;;5054353;28;19920;-67
2021/03/11 05:16:55;;;;;;;;;;;-7.40;99.90;;;;;;5054474;28;20431;-67
2021/03/11 05:19:21;;;;;;;;;;;-7.40;99.90;;;;;;5054309;28;19965;-68
2021/03/11 05:21:46;;;;;;;;;;;-7.40;99.90;;;;;;5052635;28;19913;-68
2021/03/11 05:24:12;;;;;;;;;;;-7.40;99.90;;;;;;5054205;28;20379;-67
2021/03/11 05:26:37;;;;;;;;;;;-7.40;99.90;;;;;;5054004;28;20074;-67
2021/03/11 05:29:03;;;;;;;;;;;-7.40;99.90;;;;;;5054174;28;19905;-68
2021/03/11 05:31:29;;;;;;;;;;;-7.40;99.90;;;;;;5054142;28;20380;-68
2021/03/11 05:33:54;;;;;;;;;;;-7.50;99.90;;;;;;5053728;28;19908;-66
2021/03/11 05:36:20;;;;;;;;;;;-7.50;99.90;;;;;;5053730;28;19940;-71
2021/03/11 05:38:46;;;;;;;;;;;-7.40;99.90;;;;;;5053161;28;20007;-66
2021/03/11 05:41:12;;;;;;;;;;;-6.90;99.90;;;;;;5053723;28;20010;-68
2021/03/11 05:43:40;;;;;;;;;;;-6.70;99.90;;;;;;5054052;28;19904;-68
2021/03/11 05:46:06;;;;;;;;;;;-6.80;99.90;;;;;;5041300;28;19908;-67
2021/03/11 05:48:34;;;;;;;;;;;-6.90;99.90;;;;;;5046112;28;20436;-69
2021/03/11 05:51:00;;;;;;;;;;;-7.00;99.90;;;;;;5044052;28;19917;-67
2021/03/11 05:53:25;;;;;;;;;;;-7.10;99.90;;;;;;5041772;28;20379;-70
2021/03/11 05:55:51;;;;;;;;;;;-7.10;99.90;;;;;;5043720;28;19921;-70
2021/03/11 05:58:19;;;;;;;;;;;-7.10;99.90;;;;;;5048634;28;20380;-70
2021/03/11 06:00:45;;;;;;;;;;;-7.10;99.90;;;;;;5045491;28;19913;-70
2021/03/11 06:03:11;;;;;;;;;;;-7.10;99.90;;;;;;5042953;28;19909;-70
2021/03/11 06:05:37;;;;;;;;;;;-7.10;99.90;;;;;;5049343;28;19905;-66
2021/03/11 06:08:06;;;;;;;;;;;-7.10;99.90;;;;;;5052508;28;20390;-66
2021/03/11 06:10:32;;;;;;;;;;;-7.10;99.90;;;;;;5047348;28;19909;-65
2021/03/11 06:12:57;;;;;;;;;;;-7.10;99.90;;;;;;5041650;28;19911;-65
2021/03/11 06:15:27;;;;;;;;;;;-7.10;99.90;;;;;;5043112;28;20395;-65
2021/03/11 06:17:53;;;;;;;;;;;-7.10;99.90;;;;;;5049695;28;19932;-66
2021/03/11 06:20:18;;;;;;;;;;;-7.10;99.90;;;;;;5051806;28;19904;-66
2021/03/11 06:22:44;;;;;;;;;;;-7.10;99.90;;;;;;5050429;28;19959;-66
2021/03/11 06:25:10;;;;;;;;;;;-7.10;99.90;;;;;;5053037;28;19931;-65
2021/03/11 06:27:36;;;;;;;;;;;-7.10;99.90;;;;;;5052955;28;20360;-67
2021/03/11 06:30:02;;;;;;;;;;;-7.10;99.90;;;;;;5052762;28;19931;-66
2021/03/11 06:32:28;;;;;;;;;;;-7.00;99.90;;;;;;5053229;28;19904;-66
2021/03/11 06:34:54;;;;;;;;;;;-6.90;99.90;;;;;;5045366;28;20307;-66
2021/03/11 06:37:36;;;;;;;;;;;-6.90;99.90;;;;;;5052927;28;19904;-70
2021/03/11 06:40:31;;;;;;;;;;;-6.90;99.90;;;;;;5052768;28;19943;-72
2021/03/11 06:43:12;;;;;;;;;;;-6.90;99.90;;;;;;5047808;28;20375;-74
2021/03/11 06:45:38;;;;;;;;;;;-6.90;99.90;;;;;;5052637;28;19904;-74
2021/03/11 06:48:26;;;;;;;;;;;-6.90;99.90;;;;;;5052441;28;20379;-74
2021/03/11 06:51:01;;;;;;;;;;;-6.90;99.90;;;;;;5051385;28;19911;-74
2021/03/11 06:53:27;;;;;;;;;;;-6.90;99.90;;;;;;5052894;28;20334;-66
2021/03/11 06:55:53;;;;;;;;;;;-6.90;99.90;;;;;;5052296;28;20364;-66
2021/03/11 06:58:20;;;;;;;;;;;-6.80;99.90;;;;;;5052722;28;19940;-66
2021/03/11 07:00:46;;;;;;;;;;;-6.80;99.90;;;;;;5052523;28;20414;-66
2021/03/11 07:03:12;;;;;;;;;;;-6.70;99.90;;;;;;5052421;28;20320;-66
2021/03/11 07:05:39;;;;;;;;;;;-6.80;99.90;;;;;;5052543;28;19944;-69
2021/03/11 07:08:09;;;;;;;;;;;-6.60;99.90;;;;;;5052018;28;20275;-69
2021/03/11 07:10:36;;;;;;;;;;;-5.90;99.90;;;;;;5052428;28;19936;-70
2021/03/11 07:13:02;;;;;;;;;;;-5.80;99.90;;;;;;5051917;28;19911;-68
2021/03/11 07:15:29;;;;;;;;;;;-5.50;99.90;;;;;;5051687;28;19962;-68
2021/03/11 07:17:55;;;;;;;;;;;-5.70;99.90;;;;;;5051170;28;19924;-68
2021/03/11 07:20:21;;;;;;;;;;;-6.00;99.90;;;;;;5045804;28;19970;-71
2021/03/11 07:23:06;;;;;;;;;;;-6.00;99.90;;;;;;5051577;28;20012;-72
2021/03/11 07:25:39;;;;;;;;;;;-6.10;99.90;;;;;;5050619;28;19912;-69
2021/03/11 07:28:06;;;;;;;;;;;-6.20;99.90;;;;;;5051300;28;19966;-67
2021/03/11 07:30:32;;;;;;;;;;;-5.50;99.90;;;;;;5051393;28;19916;-68
2021/03/11 07:33:02;;;;;;;;;;;-2.40;99.90;;;;;;5051618;28;19905;-69
2021/03/11 07:35:29;;;;;;;;;;;-3.20;99.90;;;;;;5050329;28;19921;-70
2021/03/11 07:37:58;;;;;;;;;;;-4.10;96.50;;;;;;5051984;28;19912;-69
2021/03/11 07:40:25;;;;;;;;;;;-4.70;97.60;;;;;;5051372;28;19905;-67
2021/03/11 07:42:51;;;;;;;;;;;-5.10;98.80;;;;;;5051967;28;19913;-71
2021/03/11 07:45:16;;;;;;;;;;;-5.30;99.90;;;;;;5051842;28;19995;-71
2021/03/11 07:47:42;;;;;;;;;;;-5.40;99.90;;;;;;5051329;28;19915;-68
2021/03/11 07:50:09;;;;;;;;;;;-5.60;99.90;;;;;;5049814;28;20390;-66
2021/03/11 07:52:34;;;;;;;;;;;-5.60;99.90;;;;;;5048542;28;19939;-67
2021/03/11 07:55:02;;;;;;;;;;;-5.70;99.90;;;;;;5051502;28;19963;-71
2021/03/11 07:57:28;;;;;;;;;;;-5.70;99.90;;;;;;5051489;28;19904;-70
2021/03/11 07:59:54;;;;;;;;;;;-5.80;99.90;;;;;;5051365;28;20557;-72
2021/03/11 08:02:20;;;;;;;;;;;-5.80;99.90;;;;;;5053106;28;20409;-71
2021/03/11 08:04:47;;;;;;;;;;;-5.80;99.90;;;;;;5055616;28;19908;-78
2021/03/11 08:07:22;;;;;;;;;;;-5.90;99.90;;;;;;5055477;28;20420;-77
2021/03/11 08:09:50;;;;;;;;;;;-5.90;99.90;;;;;;5055280;28;19930;-82
2021/03/11 08:12:31;;;;;;;;;;;-5.50;99.90;;;;;;5057531;28;19916;-81
2021/03/11 08:14:58;;;;;;;;;;;-5.50;99.90;;;;;;5057320;28;20291;-81
2021/03/11 08:17:35;;;;;;;;;;;-5.00;99.90;;;;;;5055784;28;19911;-80
2021/03/11 08:20:01;;;;;;;;;;;-5.20;99.90;;;;;;5055789;28;20359;-80
2021/03/11 08:22:45;;;;;;;;;;;-5.30;99.90;;;;;;5055722;28;19912;-81
2021/03/11 08:25:30;;;;;;;;;;;-5.50;99.90;;;;;;5055670;28;19905;-81
2021/03/11 08:27:55;;;;;;;;;;;-5.60;99.90;;;;;;5054469;28;19909;-81
2021/03/11 08:30:47;;;;;;;;;;;-5.60;99.90;;;;;;5055573;28;20386;-81
2021/03/11 08:33:33;;;;;;;;;;;-5.60;99.90;;;;;;5055233;28;19905;-80
2021/03/11 08:35:59;;;;;;;;;;;-5.60;99.90;;;;;;5054693;28;19913;-81
2021/03/11 08:38:26;;;;;;;;;;;-5.60;99.90;;;;;;5055627;28;20381;-81
2021/03/11 08:41:00;;;;;;;;;;;-5.60;99.90;;;;;;5055472;28;20429;-81
2021/03/11 08:43:35;;;;;;;;;;;-5.60;99.90;;;;;;5055548;28;20352;-81
2021/03/11 08:46:01;;;;;;;;;;;-5.60;99.90;;;;;;5055534;28;19908;-81
2021/03/11 08:48:38;;;;;;;;;;;-5.70;99.90;;;;;;5055378;28;19999;-81
2021/03/11 08:51:04;;;;;;;;;;;-5.60;99.90;;;;;;5055577;28;19905;-81
2021/03/11 08:53:36;;;;;;;;;;;-5.60;99.90;;;;;;5055627;28;19928;-80
2021/03/11 08:56:21;;;;;;;;;;;-5.50;99.90;;;;;;5054776;28;19974;-81
2021/03/11 08:58:53;;;;;;;;;;;-5.00;99.90;;;;;;5055110;28;19930;-79
2021/03/11 09:01:28;;;;;;;;;;;-4.50;99.90;;;;;;5053706;28;19962;-78
2021/03/11 09:03:54;;;;;;;;;;;-4.80;99.90;;;;;;5054726;28;19920;-78
2021/03/11 09:06:40;;;;;;;;;;;-5.00;99.90;;;;;;5052215;28;19936;-78
2021/03/11 09:09:05;;;;;;;;;;;-5.20;99.90;;;;;;5054888;28;19905;-78
2021/03/11 09:11:31;;;;;;;;;;;-5.30;99.90;;;;;;5054789;28;20265;-77
2021/03/11 09:13:57;;;;;;;;;;;-5.30;99.90;;;;;;5052060;28;19912;-78
2021/03/11 09:16:26;;;;;;;;;;;-5.30;99.90;;;;;;5054838;28;19913;-77
2021/03/11 09:18:53;;;;;;;;;;;-5.30;99.90;;;;;;5054933;28;19905;-77
2021/03/11 09:21:18;;;;;;;;;;;-5.30;99.90;;;;;;5054526;28;19905;-76
2021/03/11 09:23:44;;;;;;;;;;;-5.30;99.90;;;;;;5054694;28;19912;-78
2021/03/11 09:26:29;;;;;;;;;;;-5.30;99.90;;;;;;5054502;28;19904;-77
2021/03/11 09:28:57;;;;;;;;;;;-5.30;99.90;;;;;;5054389;28;19915;-78
2021/03/11 09:31:27;;;;;;;;;;;-5.30;99.90;;;;;;5059360;28;19905;-77
2021/03/11 09:33:54;;;;;;;;;;;-4.80;99.90;;;;;;5059699;28;20272;-77
2021/03/11 09:36:20;;;;;;;;;;;-4.70;99.90;;;;;;5054267;28;19958;-79
2021/03/11 09:38:46;;;;;;;;;;;-4.80;99.90;;;;;;5054619;28;19912;-76
2021/03/11 09:41:12;;;;;;;;;;;-5.00;99.90;;;;;;5053847;28;19952;-75
2021/03/11 09:43:38;;;;;;;;;;;-5.00;99.90;;;;;;5054169;28;19940;-75
2021/03/11 09:46:11;;;;;;;;;;;-4.90;99.90;;;;;;5053693;28;20069;-74
2021/03/11 09:48:44;;;;;;;;;;;-4.90;99.90;;;;;;5054151;28;19951;-72
2021/03/11 09:51:13;;;;;;;;;;;-4.90;99.90;;;;;;5051842;28;20249;-71
2021/03/11 09:53:40;;;;;;;;;;;-4.90;99.90;;;;;;5053688;28;19913;-71
2021/03/11 09:56:07;;;;;;;;;;;-4.90;99.90;;;;;;5053690;28;19913;-72
2021/03/11 09:58:32;;;;;;;;;;;-4.90;99.90;;;;;;5053650;28;19987;-72
2021/03/11 10:00:58;;;;;;;;;;;-4.90;99.90;;;;;;5053473;28;20050;-71
2021/03/11 10:03:30;;;;;;;;;;;-4.90;99.90;;;;;;5052959;28;20054;-72
2021/03/11 10:05:59;;;;;;;;;;;-4.90;99.90;;;;;;5052972;28;19917;-74
2021/03/11 10:08:26;;;;;;;;;;;-4.80;99.90;;;;;;5050233;28;20009;-75
2021/03/11 10:11:17;;;;;;;;;;;-4.80;99.90;;;;;;5063874;28;19905;-75
2021/03/11 10:13:49;;;;;;;;;;;-4.80;99.90;;;;;;5046087;28;20419;-73
2021/03/11 10:16:17;;;;;;;;;;;-4.80;99.90;;;;;;5050645;28;19916;-74
2021/03/11 10:19:03;;;;;;;;;;;-4.70;99.90;;;;;;5053284;28;19947;-74
2021/03/11 10:21:29;;;;;;;;;;;-4.70;99.90;;;;;;5051005;28;20578;-74
2021/03/11 10:23:55;;;;;;;;;;;-4.70;99.90;;;;;;5053332;28;19927;-75
2021/03/11 10:26:22;;;;;;;;;;;-4.70;99.90;;;;;;5053024;28;20348;-74
2021/03/11 10:28:50;;;;;;;;;;;-4.60;99.90;;;;;;5053210;28;20031;-75
2021/03/11 10:31:15;;;;;;;;;;;-4.60;99.90;;;;;;5052847;28;19908;-76
2021/03/11 10:33:41;;;;;;;;;;;-4.60;99.90;;;;;;5053018;28;19916;-74
2021/03/11 10:36:15;;;;;;;;;;;-4.50;99.90;;;;;;5053287;28;19974;-71
2021/03/11 10:38:41;;;;;;;;;;;-4.50;99.90;;;;;;5053296;28;19916;-71
2021/03/11 10:41:10;;;;;;;;;;;-4.50;99.90;;;;;;5052977;28;19908;-71
2021/03/11 10:43:35;;;;;;;;;;;-4.50;99.90;;;;;;5053103;28;20000;-71
2021/03/11 10:46:01;;;;;;;;;;;-4.50;99.90;;;;;;5053287;28;19948;-71
2021/03/11 10:48:27;;;;;;;;;;;-4.40;99.90;;;;;;5053080;28;19908;-71
2021/03/11 10:50:54;;;;;;;;;;;-4.40;99.90;;;;;;5053375;28;19908;-72
2021/03/11 10:53:35;;;;;;;;;;;-4.40;99.90;;;;;;5052848;28;20260;-71
2021/03/11 10:56:05;;;;;;;;;;;-4.40;99.90;;;;;;5052848;28;20371;-71
2021/03/11 10:58:30;;;;;;;;;;;-4.40;99.90;;;;;;5052853;28;19909;-71
2021/03/11 11:01:05;;;;;;;;;;;-4.40;99.90;;;;;;5052868;28;19904;-71
2021/03/11 11:03:31;;;;;;;;;;;-4.40;99.90;;;;;;5052722;28;20322;-75
2021/03/11 11:05:56;;;;;;;;;;;-4.40;99.90;;;;;;5052279;28;19909;-73
2021/03/11 11:08:22;;;;;;;;;;;-4.30;99.90;;;;;;5052128;28;19909;-74
2021/03/11 11:10:48;;;;;;;;;;;-4.30;99.90;;;;;;5051005;28;19948;-70
2021/03/11 11:13:14;;;;;;;;;;;-4.00;99.90;;;;;;5050672;28;20075;-69
2021/03/11 11:15:39;;;;;;;;;;;-4.00;99.90;;;;;;5051445;28;20068;-69
2021/03/11 11:18:05;;;;;;;;;;;-4.10;99.90;;;;;;5051668;28;19904;-69
2021/03/11 11:20:32;;;;;;;;;;;-4.10;99.90;;;;;;5052239;28;19908;-68
2021/03/11 11:22:57;;;;;;;;;;;-4.20;99.90;;;;;;5052304;28;19912;-71
2021/03/11 11:25:23;;;;;;;;;;;-4.20;99.90;;;;;;5052263;28;19913;-74
2021/03/11 11:27:48;;;;;;;;;;;-4.10;99.90;;;;;;5051341;28;20321;-73
2021/03/11 11:30:15;;;;;;;;;;;-3.70;99.90;;;;;;5052369;28;19905;-77
2021/03/11 11:32:40;;;;;;;;;;;-3.50;99.90;;;;;;5052163;28;19978;-77
2021/03/11 11:35:06;;;;;;;;;;;-3.30;99.90;;;;;;5052271;28;19960;-76
2021/03/11 11:37:32;;;;;;;;;;;-3.40;99.90;;;;;;5051666;28;19912;-76
2021/03/11 11:39:58;;;;;;;;;;;-3.60;99.90;;;;;;5052161;28;20379;-76
2021/03/11 11:42:24;;;;;;;;;;;-3.80;99.90;;;;;;5052360;28;19908;-77
2021/03/11 11:44:49;;;;;;;;;;;-3.90;99.90;;;;;;5052552;28;19928;-76
2021/03/11 11:47:15;;;;;;;;;;;-3.90;99.90;;;;;;5052447;28;20402;-77
2021/03/11 11:49:40;;;;;;;;;;;-3.90;99.90;;;;;;5052308;28;19991;-76
2021/03/11 11:52:06;;;;;;;;;;;-3.90;99.90;;;;;;5052136;28;19905;-76
2021/03/11 11:54:32;;;;;;;;;;;-3.90;99.90;;;;;;5052114;28;19991;-76
2021/03/11 11:56:58;;;;;;;;;;;-3.90;99.90;;;;;;5052457;28;20003;-76
2021/03/11 11:59:23;;;;;;;;;;;-3.90;99.90;;;;;;5052122;28;19905;-77
2021/03/11 12:01:49;;;;;;;;;;;-3.90;99.90;;;;;;5052403;28;19911;-76
2021/03/11 12:04:14;;;;;;;;;;;-3.90;99.90;;;;;;5052349;28;19905;-77
2021/03/11 12:06:40;;;;;;;;;;;-3.90;99.90;;;;;;5052149;28;20371;-77
2021/03/11 12:09:06;;;;;;;;;;;-3.80;99.90;;;;;;5052003;28;20029;-77
2021/03/11 12:11:33;;;;;;;;;;;-3.80;99.90;;;;;;5052446;28;19951;-77
2021/03/11 12:13:59;;;;;;;;;;;-3.80;99.90;;;;;;5052016;28;19905;-76
2021/03/11 12:16:24;;;;;;;;;;;-3.70;99.90;;;;;;5051900;28;19913;-77
2021/03/11 12:18:50;;;;;;;;;;;-3.70;99.90;;;;;;5052458;28;19909;-76
2021/03/11 12:21:16;;;;;;;;;;;-3.60;99.90;;;;;;5051872;28;19905;-77
2021/03/11 12:23:41;;;;;;;;;;;-3.70;99.90;;;;;;5051519;28;19908;-74
2021/03/11 12:26:07;;;;;;;;;;;-3.70;99.90;;;;;;5053756;28;19911;-76
2021/03/11 12:28:32;;;;;;;;;;;-3.10;99.90;;;;;;5051655;28;19905;-71
2021/03/11 12:30:58;;;;;;;;;;;-3.00;99.90;;;;;;5051884;28;19911;-73
2021/03/11 12:33:24;;;;;;;;;;;-2.20;99.90;;;;;;5051663;28;19904;-73
2021/03/11 12:35:51;;;;;;;;;;;-2.40;99.90;;;;;;5051808;28;19928;-69
2021/03/11 12:38:16;;;;;;;;;;;-2.70;99.90;;;;;;5051819;28;19909;-69
2021/03/11 12:40:42;;;;;;;;;;;-3.00;99.90;;;;;;5051836;28;19967;-70
2021/03/11 12:43:07;;;;;;;;;;;-3.20;99.90;;;;;;5049602;28;19908;-70
2021/03/11 12:45:33;;;;;;;;;;;-3.20;99.90;;;;;;5045555;28;20003;-70
2021/03/11 12:47:59;;;;;;;;;;;-3.30;99.90;;;;;;5052004;28;19963;-70
2021/03/11 12:50:24;;;;;;;;;;;-3.30;99.90;;;;;;5054336;28;19915;-70
2021/03/11 12:52:51;;;;;;;;;;;-3.30;99.90;;;;;;5055090;28;19908;-70
2021/03/11 12:55:17;;;;;;;;;;;-3.30;99.90;;;;;;5054450;28;19920;-70
2021/03/11 12:57:42;;;;;;;;;;;-3.30;99.90;;;;;;5055111;28;19909;-71
2021/03/11 13:00:09;;;;;;;;;;;-3.30;99.90;;;;;;5052914;28;19954;-71
2021/03/11 15:49:07;;;;;;;4.63;3.00;;;-4.00;99.90;;;;;;5130468;27;20997;-67
2021/03/11 15:51:32;;;;;;;6.72;3.60;;;-3.70;99.90;;;;;;5129968;28;20031;-68
2021/03/11 15:53:58;;;;;;;6.95;3.33;;;-3.80;99.90;;;;;;5130585;28;20072;-68
2021/03/11 15:56:26;;;;;;;6.32;3.20;;;-3.80;99.90;;;;;;5129595;28;20027;-68
2021/03/11 15:58:52;;;;;;;6.68;3.30;;;-3.90;99.90;;;;;;5130040;28;20049;-68
2021/03/11 16:01:18;;;;;;;6.65;3.22;;;-3.90;99.90;;;;;;5129952;28;20019;-67
2021/03/11 16:03:44;;;;;;;6.22;3.50;;;-3.60;99.90;;;;;;5130372;28;20039;-67
2021/03/11 16:06:10;;;;;;;7.55;3.90;;;-3.50;99.90;;;;;;5130316;28;20028;-67
2021/03/11 16:08:35;;;;;;;8.65;4.00;;;-3.60;99.90;;;;;;5129666;28;20069;-69
2021/03/11 16:11:02;;;;;;;8.40;3.50;;;-3.60;99.90;;;;;;5130079;28;20034;-68
2021/03/11 16:13:28;;;;;;;7.45;3.53;;;-2.50;99.90;;;;;;5122058;28;20035;-69
2021/03/11 16:15:54;;;;;;;4.80;3.50;;;-2.80;99.90;;;;;;5109460;28;20550;-69
2021/03/11 16:18:20;;;;;;;6.53;3.67;;;-3.20;99.90;;;;;;5109149;28;20107;-69
2021/03/11 16:20:45;;;;;;;5.35;3.30;;;-3.40;99.90;;;;;;5108621;28;20149;-69
2021/03/11 16:23:11;;;;;;;8.65;3.65;;;-3.50;99.90;;;;;;5109468;28;20467;-69
2021/03/11 16:25:37;;;;;;;10.38;3.22;;;-3.50;99.90;;;;;;5109333;28;20489;-69
2021/03/11 16:28:03;;;;;;;7.18;3.88;;;-3.60;99.90;;;;;;5108991;28;20548;-69
2021/03/11 16:30:30;;;;;;;6.35;3.50;;;-3.60;99.90;;;;;;5090652;28;20081;-68
2021/03/11 16:32:56;;;;;;;6.00;3.38;;;-3.60;99.90;;;;;;5109011;28;20106;-69
2021/03/11 16:35:21;;;;;;;5.25;3.17;;;-3.70;99.90;;;;;;5109229;28;20430;-69
2021/03/11 16:37:49;;;;;;;5.80;3.38;;;-3.70;99.90;;;;;;5109122;28;20028;-69
2021/03/11 16:40:15;;;;;;;7.68;4.63;;;-3.70;99.90;;;;;;5108862;28;20016;-71
2021/03/11 16:42:42;;;;;;;7.50;3.78;;;-3.50;99.90;;;;;;5111144;28;20020;-71
2021/03/11 16:45:08;;;;;;;4.47;3.10;;;-3.60;99.90;;;;;;5111573;28;20672;-72
2021/03/11 16:47:35;;;;;;;6.85;3.60;;;-3.60;99.90;;;;;;5108023;28;20474;-73
2021/03/11 16:50:03;;;;;;;7.15;3.90;;;-3.60;99.90;;;;;;5108677;28;20024;-68
2021/03/11 16:52:28;;;;;;;6.03;3.53;;;-3.60;99.90;;;;;;5108708;28;20024;-70
2021/03/11 16:54:54;;;;;;;7.85;4.38;;;-3.70;99.90;;;;;;5108650;28;20043;-70
2021/03/11 16:57:20;;;;;;;7.60;3.60;;;-3.70;99.90;;;;;;5108491;28;20020;-70
2021/03/11 16:59:47;;;;;;;7.30;4.20;;;-3.70;99.90;;;;;;5098857;28;20020;-70
2021/03/11 17:02:12;;;;;;;6.93;3.88;;;-3.60;99.90;;;;;;5094911;28;20380;-70
2021/03/11 17:04:38;;;;;;;6.20;3.63;;;-3.60;99.90;;;;;;5094494;28;20020;-70
2021/03/11 17:07:04;;;;;;;5.40;3.53;;;-3.70;99.90;;;;;;5094824;28;20024;-69
2021/03/11 17:09:30;;;;;;;4.93;3.03;;;-3.60;99.90;;;;;;5094699;28;20505;-69
2021/03/11 17:11:56;;;;;;;6.78;3.05;;;-3.70;99.90;;;;;;5076547;28;20026;-68
2021/03/11 17:14:21;;;;;;;8.80;3.95;;;-3.60;99.90;;;;;;5094057;28;20024;-69
2021/03/11 17:16:47;;;;;;;8.73;3.97;;;-3.60;99.90;;;;;;5094889;28;20023;-69
2021/03/11 17:19:13;;;;;;;7.97;4.00;;;-3.60;99.90;;;;;;5094691;28;20034;-68
2021/03/11 17:21:40;;;;;;;8.35;4.35;;;-3.60;99.90;;;;;;5094456;28;20508;-68
2021/03/11 17:24:07;;;;;;;9.13;3.75;;;-3.60;99.90;;;;;;5094776;28;20103;-69
2021/03/11 17:26:33;;;;;;;5.82;3.38;;;-3.60;99.90;;;;;;5094571;28;20048;-66
2021/03/11 17:28:58;;;;;;;9.18;4.20;;;-3.60;99.90;;;;;;5094184;28;20074;-66
2021/03/11 17:31:27;;;;;;;7.60;4.20;;;-3.60;99.90;;;;;;5094569;28;20020;-66
2021/03/11 17:33:53;;;;;;;7.00;3.53;;;-3.60;99.90;;;;;;5094352;28;20024;-67
2021/03/11 17:36:20;;;;;;;7.15;4.20;;;-3.60;99.90;;;;;;5094583;28;20103;-67
2021/03/11 17:38:46;;;;;;;10.98;4.70;;;-3.60;99.90;;;;;;5094449;28;21697;-67
2021/03/11 17:41:11;;;;;;;8.65;4.32;;;-3.60;99.90;;;;;;5093943;28;20103;-68
2021/03/11 17:43:37;;;;;;;8.98;4.72;;;-3.60;99.90;;;;;;5093921;28;20032;-68
2021/03/11 17:46:04;;;;;;;7.60;4.10;;;-3.60;99.90;;;;;;5094298;28;20039;-67
2021/03/11 17:48:30;;;;;;;10.13;4.25;;;-3.50;99.90;;;;;;5093729;28;20155;-69
2021/03/11 17:50:55;;;;;;;6.95;4.40;;;-3.50;99.90;;;;;;5075980;28;20526;-69
2021/03/11 17:53:21;;;;;;;5.93;3.60;;;-3.50;99.90;;;;;;5075668;28;20115;-69
2021/03/11 17:55:47;;;;;;;7.47;3.67;;;-3.50;99.90;;;;;;5093977;28;20044;-70
2021/03/11 17:58:12;;;;;;;7.18;4.13;;;-3.50;99.90;;;;;;5075192;28;20164;-70
2021/03/11 18:00:39;;;;;;;6.53;3.75;;;-3.50;99.90;;;;;;5093728;28;20055;-70
2021/03/11 18:03:05;;;;;;;8.88;4.53;;;-3.50;99.90;;;;;;5094064;28;20035;-70
2021/03/11 18:05:32;;;;;;;10.23;4.50;;;-3.40;99.90;;;;;;5093543;28;20101;-70
2021/03/11 18:07:58;;;;;;;8.90;4.57;;;-3.40;99.90;;;;;;5093600;28;20038;-68
2021/03/11 18:10:24;;;;;;;9.68;4.55;;;-3.40;99.90;;;;;;5092789;28;20020;-68
2021/03/11 18:12:49;;;;;;;8.57;4.55;;;-3.40;99.90;;;;;;5093197;28;20027;-67
2021/03/11 18:15:15;;;;;;;9.93;3.97;;;-3.40;99.90;;;;;;5093652;28;20051;-68
2021/03/11 18:17:42;;;;;;;6.57;3.72;;;-3.40;99.90;;;;;;5093283;28;20099;-68
2021/03/11 18:20:10;;;;;;;6.45;3.70;;;-3.40;99.90;;;;;;5093797;28;20031;-68
2021/03/11 18:22:37;;;;;;;6.65;3.75;;;-3.40;99.90;;;;;;5092955;28;20529;-69
2021/03/11 18:25:03;;;;;;;7.03;4.22;;;-3.30;99.90;;;;;;5093382;28;20038;-69
2021/03/11 18:27:29;;;;;;;8.75;4.35;;;-3.30;99.90;;;;;;5093001;28;20024;-68
2021/03/11 18:29:55;;;;;;;8.07;3.72;;;-3.30;99.90;;;;;;5092954;28;20026;-68
2021/03/11 18:32:21;;;;;;;5.97;3.78;;;-3.30;99.90;;;;;;5092877;28;20028;-69
2021/03/11 18:34:50;;;;;;;6.78;4.10;;;-3.30;99.90;;;;;;5093172;28;20020;-69
2021/03/11 18:37:16;;;;;;;11.60;4.35;;;-3.30;99.90;;;;;;5093158;28;20111;-68
2021/03/11 18:39:46;;;;;;;8.65;4.20;;;-3.30;99.90;;;;;;5092734;28;20065;-68
2021/03/11 18:42:11;;;;;;;6.60;4.07;;;-3.30;99.90;;;;;;5093069;28;20387;-67
2021/03/11 18:44:38;;;;;;;7.75;4.32;;;-3.30;99.90;;;;;;5093112;28;20027;-69
2021/03/11 18:47:04;;;;;;;7.93;4.80;;;-3.30;99.90;;;;;;5092715;28;20048;-68
2021/03/11 18:49:30;;;;;;;6.45;4.22;;;-3.30;99.90;;;;;;5092802;28;20369;-70
2021/03/11 18:51:56;;;;;;;7.35;4.47;;;-3.30;99.90;;;;;;5074061;28;20065;-69
2021/03/11 18:54:22;;;;;;;7.57;4.53;;;-3.20;99.90;;;;;;5092309;28;20039;-69
2021/03/11 18:56:49;;;;;;;8.57;4.00;;;-3.20;99.90;;;;;;5092341;28;20035;-69
2021/03/11 18:59:15;;;;;;;6.65;4.65;;;-3.20;99.90;;;;;;5092379;28;20039;-69
2021/03/11 19:01:41;;;;;;;9.40;4.60;;;-3.20;99.90;;;;;;5074184;28;20137;-70
2021/03/11 19:04:06;;;;;;;6.93;4.38;;;-3.20;99.90;;;;;;5092301;28;20472;-70
2021/03/11 19:06:32;;;;;;;12.35;4.65;;;-3.20;99.90;;;;;;5091962;28;20056;-70
2021/03/11 19:08:58;;;;;;;14.23;5.05;;;-3.10;99.90;;;;;;5092109;28;20035;-70
2021/03/11 19:11:24;;;;;;;9.55;4.30;;;-3.10;99.90;;;;;;5091998;28;20024;-69
2021/03/11 19:13:51;;;;;;;6.82;4.05;;;-3.10;99.90;;;;;;5092381;28;20479;-70
2021/03/11 19:16:18;;;;;;;8.48;4.88;;;-3.10;99.90;;;;;;5092304;28;20035;-70
2021/03/11 19:18:44;;;;;;;8.50;4.97;;;-3.10;99.90;;;;;;5092210;28;20386;-70
2021/03/11 19:21:10;;;;;;;13.02;5.38;;;-3.10;99.90;;;;;;5091893;28;20020;-70
2021/03/11 19:23:35;;;;;;;7.47;4.40;;;-3.10;99.90;;;;;;5091247;28;20487;-69
2021/03/11 19:26:01;;;;;;;8.23;4.20;;;-3.10;99.90;;;;;;5092047;28;20032;-69
2021/03/11 19:28:28;;;;;;;8.80;4.72;;;-3.00;99.90;;;;;;5091724;28;20478;-70
2021/03/11 19:30:54;;;;;;;8.38;4.53;;;-3.10;99.90;;;;;;5091803;28;20065;-70
2021/03/11 19:33:21;;;;;;;8.27;4.68;;;-3.10;99.90;;;;;;5091782;28;20031;-69
2021/03/11 19:35:48;;;;;;;8.63;4.38;;;-3.10;99.90;;;;;;5091926;28;20230;-70
2021/03/11 19:38:14;;;;;;;8.65;4.40;;;-3.10;99.90;;;;;;5092158;28;20300;-70
2021/03/11 19:40:48;;;;;;;10.73;5.55;;;-3.10;99.90;;;;;;5091837;28;20092;-70
2021/03/11 19:43:18;;;;;;;7.70;4.20;;;-3.10;99.90;;;;;;5091720;28;20119;-70
2021/03/11 19:45:45;;;;;;;8.50;5.25;;;-3.10;99.90;;;;;;5092031;28;20109;-70
2021/03/11 19:48:11;;;;;;;12.65;5.63;;;-3.10;99.90;;;;;;5091498;28;20108;-70
2021/03/11 19:50:37;;;;;;;7.78;4.50;;;-3.00;99.90;;;;;;5091977;28;20032;-70
2021/03/11 19:53:03;;;;;;;7.63;4.55;;;-3.00;99.90;;;;;;5091830;28;20080;-69
2021/03/11 19:55:29;;;;;;;14.65;5.85;;;-3.00;99.90;;;;;;5091923;28;20177;-70
2021/03/11 19:57:55;;;;;;;8.68;5.00;;;-3.00;99.90;;;;;;5091770;28;20522;-68
2021/03/11 20:00:23;;;;;;;11.35;6.00;;;-3.00;99.90;;;;;;5091944;28;20027;-69
2021/03/11 20:02:49;;;;;;;10.05;5.38;;;-3.00;99.90;;;;;;5091466;28;20024;-69
2021/03/11 20:05:16;;;;;;;9.10;5.72;;;-3.00;99.90;;;;;;5091764;28;20021;-69
2021/03/11 20:07:43;;;;;;;10.07;6.13;;;-2.90;99.90;;;;;;5091448;28;20073;-69
2021/03/11 20:10:13;;;;;;;9.07;5.00;;;-2.90;99.90;;;;;;5091895;28;20024;-69
2021/03/11 20:12:39;;;;;;;10.65;5.82;;;-2.90;99.90;;;;;;5091476;28;20024;-70
2021/03/11 20:15:06;;;;;;;10.18;5.90;;;-2.90;99.90;;;;;;5091409;28;20016;-70
2021/03/11 20:17:32;;;;;;;10.70;5.75;;;-2.90;99.90;;;;;;5091354;28;20421;-70
2021/03/11 20:19:58;;;;;;;9.85;6.18;;;-2.80;99.90;;;;;;5091334;28;20032;-70
2021/03/11 20:22:23;;;;;;;10.48;6.25;;;-2.80;99.90;;;;;;5091526;28;20617;-70
2021/03/11 20:24:49;;;;;;;9.80;5.82;;;-2.70;99.90;;;;;;5091331;28;20036;-70
2021/03/11 20:27:15;;;;;;;9.25;5.65;;;-2.70;99.90;;;;;;5091436;28;20074;-70
2021/03/11 20:29:41;;;;;;;10.77;5.80;;;-2.70;99.90;;;;;;5091625;28;20093;-72
2021/03/11 20:32:07;;;;;;;17.67;6.90;;;-2.50;99.90;;;;;;5091277;28;20024;-71
2021/03/11 20:34:34;;;;;;;11.77;7.03;;;-2.50;99.90;;;;;;5092897;28;20035;-71
2021/03/11 20:37:01;;;;;;;10.43;6.03;;;-2.50;99.90;;;;;;5095717;28;20032;-70
2021/03/11 20:39:29;;;;;;;13.40;6.60;;;-2.50;99.90;;;;;;5095452;28;20078;-70
2021/03/11 20:41:55;;;;;;;13.27;7.60;;;-2.60;99.90;;;;;;5094947;28;20032;-71
2021/03/11 20:44:21;;;;;;;12.38;6.72;;;-2.60;99.90;;;;;;5094807;28;20027;-69